M I D A S
Marine Information and Data Acquisition System
Tripno 1031 of the Zeeleeuw from 2006-02-15 08:21:39 to 2006-02-15 13:48:44
Back to CruiseResearch ActivitiesStationsMapUnderway DataData graphs

EquipmentUnitsComment
TimeDGPSUTC
LatitudeDGPSDM.mWGS84
LongitudeDGPSDM.mWGS84
HeadingGyrodeg 
SOGDGPSknotsSpeed over ground
COGDGPSdegCourse over ground
DepthEcho soundermeters200 kHz
Missing or incorrect values are displayed as -999
Navigation data collected by the RV Zeeleeuw from 2006-02-15 08:09:40 to 2006-02-15 13:59:57
Time Latitude Longitude Heading SOG COG Depth
2006-02-15 08:10:44 51°13.61 2°56.052 115.8 2.6 297 -999
2006-02-15 08:11:45 51°13.634 2°55.964 116.1 4 294 39.4
2006-02-15 08:12:45 51°13.663 2°55.87 114.1 4 295 -999
2006-02-15 08:13:44 51°13.682 2°55.784 96.6 2.8 283 -999
2006-02-15 08:14:45 51°13.699 2°55.779 42.6 2.3 19 35.1
2006-02-15 08:15:45 51°13.71 2°55.775 3.2 1.7 195 -999
2006-02-15 08:16:45 51°13.722 2°55.75 330.9 3.5 321 -999
2006-02-15 08:17:45 51°13.819 2°55.647 332.9 8.5 329 -999
2006-02-15 08:18:45 51°13.96 2°55.541 341 9.2 337 -999
2006-02-15 08:19:44 51°14.092 2°55.443 340 9.3 334 -999
2006-02-15 08:20:45 51°14.232 2°55.311 326.1 9.7 320 -999
2006-02-15 08:21:45 51°14.341 2°55.118 315.9 10.1 312 8.4
2006-02-15 08:22:44 51°14.456 2°54.891 307.6 12 296 7.7
2006-02-15 08:23:44 51°14.487 2°54.567 274.4 12.8 268 7.9
2006-02-15 08:24:44 51°14.421 2°54.251 245.9 12.6 242 7.6
2006-02-15 08:25:44 51°14.312 2°53.961 243 13 239 7.5
2006-02-15 08:26:44 51°14.211 2°53.656 243.4 13.1 238 7.6
2006-02-15 08:27:44 51°14.102 2°53.353 249.5 13.2 245 7.9
2006-02-15 08:28:44 51°13.991 2°53.05 243.5 13.2 240 8.1
2006-02-15 08:29:44 51°13.886 2°52.742 248.9 13.2 243 8.4
2006-02-15 08:30:44 51°13.773 2°52.441 244.8 13.2 240 8.7
2006-02-15 08:31:44 51°13.653 2°52.147 242 13.2 239 8.7
2006-02-15 08:32:44 51°13.533 2°51.854 241.5 13.2 237 8.7
2006-02-15 08:33:44 51°13.414 2°51.559 239.5 13.2 235 8.8
2006-02-15 08:34:44 51°13.297 2°51.263 241.8 13.3 238 8.8
2006-02-15 08:35:44 51°13.178 2°50.97 242.1 13.3 237 9
2006-02-15 08:36:44 51°13.061 2°50.672 244.3 13.3 239 8.9
2006-02-15 08:37:44 51°12.941 2°50.379 241.8 13.2 236 9
2006-02-15 08:38:44 51°12.823 2°50.087 240.9 13.2 235 9
2006-02-15 08:39:44 51°12.706 2°49.79 244.7 13.3 239 9.1
2006-02-15 08:40:44 51°12.597 2°49.484 248 13.3 242 9.1
2006-02-15 08:41:44 51°12.495 2°49.174 248.5 13.2 243 9.2
2006-02-15 08:42:44 51°12.403 2°48.855 250.5 13.2 244 9.4
2006-02-15 08:43:44 51°12.308 2°48.538 251.8 13.3 246 9.6
2006-02-15 08:44:44 51°12.213 2°48.222 248.6 13.2 244 9.8
2006-02-15 08:45:44 51°12.121 2°47.902 250.4 13.3 246 10.1
2006-02-15 08:46:45 51°12.026 2°47.576 249.6 13.3 244 10.1
2006-02-15 08:47:44 51°11.937 2°47.261 250.6 13.3 245 10.2
2006-02-15 08:48:44 51°11.851 2°46.937 255.6 13.3 251 10.3
2006-02-15 08:49:44 51°11.778 2°46.604 256.2 13.3 251 10.6
2006-02-15 08:50:44 51°11.703 2°46.271 255 13.3 250 10.9
2006-02-15 08:51:44 51°11.627 2°45.939 254.4 13.3 250 10.8
2006-02-15 08:52:44 51°11.552 2°45.605 254.9 13.4 250 10.8
2006-02-15 08:53:44 51°11.479 2°45.271 255.6 13.3 251 10.8
2006-02-15 08:54:44 51°11.403 2°44.94 255.2 13.3 250 10.8
2006-02-15 08:55:44 51°11.332 2°44.606 257.1 13.3 253 10.9
2006-02-15 08:56:44 51°11.276 2°44.266 259.8 13.3 255 10.9
2006-02-15 08:57:44 51°11.222 2°43.925 260.7 13.2 256 11
2006-02-15 08:58:44 51°11.167 2°43.59 260.4 13 256 11
2006-02-15 08:59:44 51°11.112 2°43.253 259.5 13.1 255 11
2006-02-15 09:00:44 51°11.06 2°42.915 260.5 13.2 255 11.1
2006-02-15 09:01:44 51°11.006 2°42.578 260.1 13.1 255 11
2006-02-15 09:02:45 51°10.953 2°42.236 260.5 13.1 257 11.1
2006-02-15 09:03:44 51°10.901 2°41.907 260.1 13 256 11.1
2006-02-15 09:04:44 51°10.85 2°41.573 259.3 13 255 11
2006-02-15 09:05:44 51°10.799 2°41.238 259.9 13.1 256 11.1
2006-02-15 09:06:44 51°10.75 2°40.902 260.6 13 257 11.2
2006-02-15 09:07:44 51°10.701 2°40.565 261 13 257 11.7
2006-02-15 09:08:44 51°10.65 2°40.231 259.8 13 256 12.3
2006-02-15 09:09:44 51°10.595 2°39.899 258.4 13.1 255 12.8
2006-02-15 09:10:44 51°10.54 2°39.564 258.2 13.1 255 13.4
2006-02-15 09:11:44 51°10.485 2°39.232 258.3 12.9 256 14.1
2006-02-15 09:12:44 51°10.432 2°38.898 257.5 13 255 14.7
2006-02-15 09:13:44 51°10.377 2°38.567 258.8 13 256 14.8
2006-02-15 09:14:44 51°10.326 2°38.234 258 12.9 255 15.3
2006-02-15 09:15:44 51°10.275 2°37.901 258.3 12.8 257 16
2006-02-15 09:16:44 51°10.225 2°37.568 258.3 12.9 256 16.6
2006-02-15 09:17:44 51°10.17 2°37.234 258.9 13.1 255 16.9
2006-02-15 09:18:44 51°10.116 2°36.899 258.8 13.1 256 16.5
2006-02-15 09:19:44 51°10.066 2°36.565 260.7 13 258 16.8
2006-02-15 09:20:44 51°10.056 2°36.226 277.8 12.7 276 16.3
2006-02-15 09:21:44 51°10.097 2°35.899 288.1 12.4 285 14.2
2006-02-15 09:22:44 51°10.198 2°35.624 316.1 11.9 319 9.4
2006-02-15 09:23:44 51°10.38 2°35.504 355.9 12.1 353 9.9
2006-02-15 09:24:44 51°10.574 2°35.576 26.2 12 28 9.1
2006-02-15 09:25:44 51°10.743 2°35.754 39.9 12.4 39 9.1
2006-02-15 09:26:44 51°10.914 2°35.931 32.6 12.4 33 9.2
2006-02-15 09:27:44 51°11.087 2°36.102 33.6 12.3 31 9.6
2006-02-15 09:28:44 51°11.259 2°36.283 34.1 12.3 32 9.7
2006-02-15 09:29:44 51°11.43 2°36.453 34.6 12.2 33 9.9
2006-02-15 09:30:44 51°11.6 2°36.627 31.4 12.3 29 9.8
2006-02-15 09:31:44 51°11.773 2°36.798 35 12.1 30 9.7
2006-02-15 09:32:44 51°11.944 2°36.972 35.8 12.3 35 9.8
2006-02-15 09:33:44 51°12.11 2°37.151 37.7 12.1 27 10
2006-02-15 09:34:44 51°12.279 2°37.323 34.4 12 29 10.3
2006-02-15 09:35:44 51°12.452 2°37.486 31.5 12.1 23 10.6
2006-02-15 09:36:44 51°12.619 2°37.657 32.9 11.9 36 11.2
2006-02-15 09:37:44 51°12.794 2°37.818 31.7 12.2 25 11.6
2006-02-15 09:38:44 51°12.963 2°37.992 35.5 12.1 31 12.3
2006-02-15 09:39:45 51°13.142 2°38.159 36.3 12.4 28 12.8
2006-02-15 09:40:44 51°13.311 2°38.33 32.4 12.3 26 13
2006-02-15 09:41:44 51°13.483 2°38.51 38.1 12.8 37 13.4
2006-02-15 09:42:44 51°13.656 2°38.685 36.3 12.3 30 13.4
2006-02-15 09:43:44 51°13.83 2°38.855 32.6 12 27 12.9
2006-02-15 09:44:44 51°14.022 2°38.939 9.4 11.8 2 11.8
2006-02-15 09:45:44 51°14.207 2°38.832 337.8 12.1 331 13.2
2006-02-15 09:46:44 51°14.384 2°38.675 336.7 12 331 29.4
2006-02-15 09:47:44 51°14.55 2°38.486 324.6 12.4 317 16.5
2006-02-15 09:48:44 51°14.685 2°38.25 318.9 12 310 14.7
2006-02-15 09:49:44 51°14.818 2°38.005 318.7 12.3 312 13.3
2006-02-15 09:50:45 51°14.957 2°37.769 320.7 11.4 315 10.2
2006-02-15 09:51:44 51°15.089 2°37.559 320.2 11.5 315 9.4
2006-02-15 09:52:44 51°15.226 2°37.331 320.3 12 315 10.3
2006-02-15 09:53:44 51°15.369 2°37.103 320.8 11.8 317 12.7
2006-02-15 09:54:44 51°15.51 2°36.872 319.5 12 315 10.7
2006-02-15 09:55:45 51°15.694 2°36.724 346.1 12.4 339 14.7
2006-02-15 09:56:45 51°15.895 2°36.717 12.8 12 4 19.9
2006-02-15 09:57:45 51°16.093 2°36.774 17 12.2 13 25.2
2006-02-15 09:58:44 51°16.287 2°36.825 15.6 12.2 2 27
2006-02-15 09:59:45 51°16.435 2°36.824 357.6 6.3 352 25.7
2006-02-15 10:00:44 51°16.515 2°36.78 352.9 4.7 342 25.9
2006-02-15 10:01:45 51°16.552 2°36.759 340.7 0.7 318 25.8
2006-02-15 10:02:45 51°16.555 2°36.751 328.2 0.3 344 25.8
2006-02-15 10:03:44 51°16.554 2°36.753 332.7 0.1 145 25.8
2006-02-15 10:04:44 51°16.551 2°36.756 337.2 0.4 141 25.6
2006-02-15 10:05:44 51°16.547 2°36.758 344 0.4 109 25.8
2006-02-15 10:06:44 51°16.544 2°36.761 340.3 0.3 124 26.3
2006-02-15 10:07:44 51°16.542 2°36.765 342.6 0.4 139 25.8
2006-02-15 10:08:44 51°16.539 2°36.769 342 0.2 209 25.9
2006-02-15 10:09:45 51°16.537 2°36.774 338.5 0.3 219 25.6
2006-02-15 10:10:45 51°16.535 2°36.777 337.9 0.2 183 26.1
2006-02-15 10:11:44 51°16.532 2°36.783 339 0.2 188 26.2
2006-02-15 10:12:44 51°16.531 2°36.788 340.3 0.4 83 25.9
2006-02-15 10:13:45 51°16.54 2°36.781 336.4 1.9 325 26.3
2006-02-15 10:14:44 51°16.602 2°36.671 319.3 8.4 308 25.7
2006-02-15 10:15:44 51°16.736 2°36.482 333.7 12.2 323 26.5
2006-02-15 10:16:44 51°16.911 2°36.311 342.5 12.4 333 26.7
2006-02-15 10:17:45 51°17.094 2°36.148 342.6 12.2 334 23.4
2006-02-15 10:18:44 51°17.272 2°35.991 339.4 12.3 330 18.1
2006-02-15 10:19:44 51°17.452 2°35.837 339.3 12.5 334 13.2
2006-02-15 10:20:45 51°17.636 2°35.68 338.1 12 330 11
2006-02-15 10:21:44 51°17.777 2°35.471 320.2 11.3 314 -999
2006-02-15 10:22:45 51°17.89 2°35.206 308.3 12.1 301 14.5
2006-02-15 10:23:44 51°17.996 2°34.927 308.8 12.8 301 24.9
2006-02-15 10:24:44 51°18.106 2°34.645 308.3 12.7 301 26.9
2006-02-15 10:25:44 51°18.215 2°34.361 309.4 12.7 302 26.3
2006-02-15 10:26:44 51°18.329 2°34.091 310.3 12.5 303 26.1
2006-02-15 10:27:44 51°18.442 2°33.82 310.2 12.6 304 18.4
2006-02-15 10:28:44 51°18.554 2°33.542 310.6 12.2 305 15.2
2006-02-15 10:29:45 51°18.67 2°33.273 310.5 12.2 305 23.9
2006-02-15 10:30:44 51°18.78 2°33.003 310 12.3 303 27.3
2006-02-15 10:31:45 51°18.891 2°32.724 309.9 12.4 302 29.7
2006-02-15 10:32:44 51°19 2°32.459 310.6 12.6 303 30.5
2006-02-15 10:33:45 51°19.115 2°32.178 309.7 12.4 306 30.4
2006-02-15 10:34:44 51°19.224 2°31.899 309.4 12.8 301 30.7
2006-02-15 10:35:44 51°19.336 2°31.624 309.4 12.2 303 30.5
2006-02-15 10:36:45 51°19.453 2°31.343 311.9 12 305 29.8
2006-02-15 10:37:44 51°19.568 2°31.078 312.3 12.6 303 28
2006-02-15 10:38:44 51°19.685 2°30.805 310.6 12.5 305 22
2006-02-15 10:39:45 51°19.805 2°30.535 310.3 12 306 17.4
2006-02-15 10:40:44 51°19.881 2°30.362 306.5 6.8 305 14.5
2006-02-15 10:41:44 51°19.937 2°30.26 313.7 4 311 13.3
2006-02-15 10:42:44 51°19.969 2°30.224 315 2 332 12.8
2006-02-15 10:43:45 51°20.004 2°30.186 310.2 2.9 317 11.5
2006-02-15 10:44:44 51°20.026 2°30.158 307 1 357 14.5
2006-02-15 10:45:45 51°20.039 2°30.167 310.8 1.7 46 14.1
2006-02-15 10:46:44 51°20.049 2°30.191 323.7 0.7 61 11.8
2006-02-15 10:47:44 51°20.055 2°30.219 337.9 1.5 73 11.9
2006-02-15 10:48:45 51°20.061 2°30.247 342.1 1.2 73 13.1
2006-02-15 10:49:45 51°20.066 2°30.277 345.1 1.4 65 13.8
2006-02-15 10:50:44 51°20.072 2°30.308 343.5 1.5 73 14.5
2006-02-15 10:51:44 51°20.077 2°30.337 337.5 1.1 69 14
2006-02-15 10:52:45 51°20.085 2°30.368 337.5 1.4 73 13.4
2006-02-15 10:53:44 51°20.094 2°30.398 341.8 0.6 27 13.1
2006-02-15 10:54:45 51°20.151 2°30.412 359.6 4.9 5 13.4
2006-02-15 10:55:45 51°20.243 2°30.498 41.2 7.6 43 14.3
2006-02-15 10:56:45 51°20.285 2°30.753 86.7 11.4 88 14.9
2006-02-15 10:57:45 51°20.343 2°31.084 71 12.9 70 16.1
2006-02-15 10:58:45 51°20.407 2°31.419 74.8 13.2 76 21.2
2006-02-15 10:59:45 51°20.469 2°31.751 73.2 12.6 71 25.2
2006-02-15 11:00:44 51°20.527 2°32.082 73.7 13.2 72 30.8
2006-02-15 11:01:45 51°20.598 2°32.407 72.3 12.4 70 31.5
2006-02-15 11:02:45 51°20.682 2°32.715 68.9 12.4 66 31
2006-02-15 11:03:44 51°20.758 2°33.028 73.2 12.4 70 30.5
2006-02-15 11:04:45 51°20.839 2°33.358 66.4 13.1 68 30.9
2006-02-15 11:05:44 51°20.919 2°33.662 64 12.3 62 32.1
2006-02-15 11:06:44 51°21.02 2°33.959 65.3 12.7 63 31.2
2006-02-15 11:07:45 51°21.114 2°34.267 69.1 13.2 67 31.2
2006-02-15 11:08:45 51°21.119 2°34.608 99.2 13.1 98 31.9
2006-02-15 11:09:44 51°21.075 2°34.937 106.8 12.4 108 32.7
2006-02-15 11:10:45 51°21.026 2°35.279 103.7 12.9 107 30.7
2006-02-15 11:11:44 51°20.979 2°35.61 106.3 12.8 110 30.9
2006-02-15 11:12:45 51°20.938 2°35.948 101.6 11.9 100 28.1
2006-02-15 11:13:45 51°20.901 2°36.252 102.6 11.5 100 25.5
2006-02-15 11:14:45 51°20.862 2°36.554 103.7 11.5 100 23.7
2006-02-15 11:15:44 51°20.84 2°36.859 96.5 12.2 89 22.3
2006-02-15 11:16:45 51°20.815 2°37.172 98.7 11.8 102 -999
2006-02-15 11:17:45 51°20.796 2°37.478 98.8 11.5 97 23.6
2006-02-15 11:18:44 51°20.774 2°37.781 97.8 12 99 24.3
2006-02-15 11:19:45 51°20.747 2°38.099 97.1 12.2 100 24.2
2006-02-15 11:20:44 51°20.73 2°38.404 97.1 11.2 96 25.3
2006-02-15 11:21:45 51°20.733 2°38.717 88.3 11.1 86 24.9
2006-02-15 11:22:45 51°20.738 2°38.979 90.7 9.4 86 25.1
2006-02-15 11:23:45 51°20.727 2°39.228 105.8 9.3 105 26
2006-02-15 11:24:44 51°20.637 2°39.419 145.8 9 146 26.5
2006-02-15 11:25:45 51°20.497 2°39.472 193.4 8.8 185 27
2006-02-15 11:26:45 51°20.425 2°39.321 265.9 7.5 259 26.8
2006-02-15 11:27:44 51°20.489 2°39.143 303.2 8.5 303 26.6
2006-02-15 11:28:45 51°20.584 2°38.957 317.6 8.9 315 25.5
2006-02-15 11:29:44 51°20.715 2°38.822 328.6 9.8 331 26.8
2006-02-15 11:30:44 51°20.861 2°38.688 329.5 10.6 327 25.9
2006-02-15 11:31:44 51°21.023 2°38.566 342.1 11.3 345 26.2
2006-02-15 11:32:44 51°21.208 2°38.562 5 11.5 11 26.7
2006-02-15 11:33:45 51°21.396 2°38.649 22.7 11.5 19 27.8
2006-02-15 11:34:44 51°21.581 2°38.782 27 12.6 26 27.7
2006-02-15 11:35:44 51°21.767 2°38.955 29.7 13.1 29 28.5
2006-02-15 11:36:44 51°21.95 2°39.138 39.1 13.1 38 29.5
2006-02-15 11:37:44 51°22.111 2°39.372 44.7 13.3 46 30
2006-02-15 11:38:45 51°22.277 2°39.608 43 13.1 42 29.6
2006-02-15 11:39:44 51°22.434 2°39.851 50.8 13.5 51 31.2
2006-02-15 11:40:44 51°22.588 2°40.104 48.4 13.1 51 30.9
2006-02-15 11:41:44 51°22.73 2°40.379 52.9 13.7 47 30.9
2006-02-15 11:42:44 51°22.873 2°40.65 50.8 13.2 50 30.7
2006-02-15 11:43:44 51°23.013 2°40.919 51.6 12.8 55 30.3
2006-02-15 11:44:44 51°23.159 2°41.188 48.1 13.7 48 30.4
2006-02-15 11:45:45 51°23.308 2°41.461 48.4 12.4 43 30.4
2006-02-15 11:46:45 51°23.457 2°41.726 49.8 13.6 48 29.9
2006-02-15 11:47:44 51°23.589 2°42.006 52 13.1 52 29.1
2006-02-15 11:48:45 51°23.724 2°42.301 56.6 12.7 54 29.1
2006-02-15 11:49:44 51°23.852 2°42.588 52.3 13.3 54 27.1
2006-02-15 11:50:44 51°23.983 2°42.881 57.5 13.3 53 29.5
2006-02-15 11:51:45 51°24.125 2°43.165 48.7 14.2 45 24.8
2006-02-15 11:52:45 51°24.258 2°43.458 61.2 14.9 57 27.6
2006-02-15 11:53:44 51°24.379 2°43.754 56 13.2 54 26
2006-02-15 11:54:45 51°24.506 2°44.06 57.9 13.5 57 24.1
2006-02-15 11:55:45 51°24.619 2°44.372 62.4 13.8 59 28.3
2006-02-15 11:56:44 51°24.728 2°44.685 65.6 12.6 67 27.5
2006-02-15 11:57:45 51°24.825 2°45.02 62.6 13.1 61 28.6
2006-02-15 11:58:45 51°24.934 2°45.341 67.1 14.3 67 28.4
2006-02-15 11:59:44 51°25.015 2°45.669 69.5 13.1 68 27.6
2006-02-15 12:00:45 51°25.105 2°46.006 69.3 13.8 65 26.5
2006-02-15 12:01:45 51°25.206 2°46.332 69.3 14 65 27.4
2006-02-15 12:02:45 51°25.302 2°46.663 69.8 13.8 66 26.4
2006-02-15 12:03:45 51°25.399 2°46.992 69.6 12.9 69 27.3
2006-02-15 12:04:44 51°25.505 2°47.308 63.7 14.6 61 27.3
2006-02-15 12:05:45 51°25.617 2°47.628 59.3 13.1 60 27.7
2006-02-15 12:06:45 51°25.723 2°47.941 67.9 12.2 67 25.3
2006-02-15 12:07:45 51°25.816 2°48.173 52.8 9.5 51 25.5
2006-02-15 12:08:45 51°25.893 2°48.293 26.8 5 37 25.2
2006-02-15 12:09:45 51°25.948 2°48.351 10.6 3.6 42 25.2
2006-02-15 12:10:45 51°25.983 2°48.395 355.4 1.8 40 25.7
2006-02-15 12:11:45 51°25.992 2°48.441 343.5 2 71 25.5
2006-02-15 12:12:45 51°26.004 2°48.491 339.6 1.9 71 25.1
2006-02-15 12:13:45 51°26.017 2°48.543 342.7 2.5 66 25
2006-02-15 12:14:45 51°26.031 2°48.593 341.9 2 64 26.5
2006-02-15 12:15:45 51°26.045 2°48.642 339.5 2.2 67 26.4
2006-02-15 12:16:44 51°26.06 2°48.691 338.2 2.1 66 26.5
2006-02-15 12:17:45 51°26.074 2°48.742 337.2 2 66 25.9
2006-02-15 12:18:45 51°26.118 2°48.785 1.6 4.9 18 25.7
2006-02-15 12:19:45 51°26.187 2°48.934 81.3 8.4 77 25.5
2006-02-15 12:20:44 51°26.118 2°49.146 149.2 9.8 136 26.1
2006-02-15 12:21:45 51°25.977 2°49.289 167.9 9.8 156 26.2
2006-02-15 12:22:44 51°25.814 2°49.355 183.4 10.5 170 25.1
2006-02-15 12:23:45 51°25.637 2°49.395 185.8 10.3 172 25.3
2006-02-15 12:24:45 51°25.472 2°49.44 183.3 10.3 169 25.4
2006-02-15 12:25:45 51°25.305 2°49.49 182.9 10.2 168 24.8
2006-02-15 12:26:45 51°25.139 2°49.536 184.3 10.2 170 24.8
2006-02-15 12:27:45 51°24.971 2°49.581 185 10.2 170 25
2006-02-15 12:28:45 51°24.806 2°49.632 184.7 10.3 167 25
2006-02-15 12:29:45 51°24.639 2°49.689 184 10.2 169 24.5
2006-02-15 12:30:45 51°24.471 2°49.735 187.8 10.3 172 25.1
2006-02-15 12:31:45 51°24.302 2°49.763 188.5 10 173 24.6
2006-02-15 12:32:45 51°24.133 2°49.79 189.9 10 175 24.6
2006-02-15 12:33:45 51°23.967 2°49.823 188.7 10 175 23.7
2006-02-15 12:34:44 51°23.802 2°49.855 189.4 10.1 176 25.2
2006-02-15 12:35:45 51°23.632 2°49.885 188.1 10.2 174 24.7
2006-02-15 12:36:45 51°23.463 2°49.916 188.4 10 174 22.4
2006-02-15 12:37:45 51°23.293 2°49.948 188.4 10.7 176 20.5
2006-02-15 12:38:45 51°23.108 2°49.967 190.1 11.2 177 19.1
2006-02-15 12:39:45 51°22.926 2°49.991 189.3 11.1 177 16.6
2006-02-15 12:40:45 51°22.741 2°50.015 188.7 11.1 174 21.6
2006-02-15 12:41:45 51°22.557 2°50.034 190.3 10.9 176 22.1
2006-02-15 12:42:45 51°22.368 2°50.047 191.5 11.4 179 25.1
2006-02-15 12:43:45 51°22.176 2°50.065 190.3 11.6 179 26.5
2006-02-15 12:44:45 51°21.981 2°50.077 190.1 11.7 178 25.6
2006-02-15 12:45:45 51°21.785 2°50.092 190.2 11.9 177 24.9
2006-02-15 12:46:45 51°21.592 2°50.108 190.3 11.6 177 24.9
2006-02-15 12:47:44 51°21.403 2°50.122 191 11.5 179 25
2006-02-15 12:48:45 51°21.208 2°50.138 189.8 11.8 177 26.2
2006-02-15 12:49:44 51°21.022 2°50.163 190 11.4 177 25.6
2006-02-15 12:50:45 51°20.83 2°50.181 191.3 11.3 180 25.8
2006-02-15 12:51:45 51°20.643 2°50.201 190.4 11.3 177 24.8
2006-02-15 12:52:45 51°20.453 2°50.241 185.3 11.7 170 22.2
2006-02-15 12:53:45 51°20.26 2°50.281 184.8 11.8 173 20.1
2006-02-15 12:54:45 51°20.065 2°50.335 180.7 12 170 18.4
2006-02-15 12:55:45 51°19.869 2°50.398 181 12.1 171 16.6
2006-02-15 12:56:44 51°19.675 2°50.456 181.4 12 171 14.8
2006-02-15 12:57:45 51°19.476 2°50.514 181.4 12.3 169 15.2
2006-02-15 12:58:44 51°19.283 2°50.566 180.8 12.1 170 15.7
2006-02-15 12:59:45 51°19.086 2°50.627 180.6 11.7 170 17.2
2006-02-15 13:00:45 51°18.893 2°50.682 181.1 11.9 171 17.5
2006-02-15 13:01:44 51°18.74 2°50.73 182.9 7.8 160 17.3
2006-02-15 13:02:44 51°18.645 2°50.788 180.9 5.9 155 17.2
2006-02-15 13:03:44 51°18.57 2°50.843 185.1 3.8 142 17.4
2006-02-15 13:04:44 51°18.551 2°50.901 183.2 2.5 81 17.6
2006-02-15 13:05:44 51°18.565 2°50.962 169.5 2.5 69 16.9
2006-02-15 13:06:44 51°18.585 2°51.022 149.6 2.4 63 17.1
2006-02-15 13:07:44 51°18.605 2°51.081 141.2 2.3 61 16.9
2006-02-15 13:08:45 51°18.624 2°51.142 140.3 2.9 62 17.1
2006-02-15 13:09:45 51°18.641 2°51.203 147.2 2.3 67 16.7
2006-02-15 13:10:44 51°18.657 2°51.261 153.7 2.6 65 17.1
2006-02-15 13:11:45 51°18.621 2°51.358 158.5 7.9 141 17
2006-02-15 13:12:45 51°18.459 2°51.504 165.5 12.3 149 16.1
2006-02-15 13:13:45 51°18.273 2°51.629 168.3 12 158 14.8
2006-02-15 13:14:44 51°18.092 2°51.755 166 11.9 155 13.9
2006-02-15 13:15:45 51°17.906 2°51.892 168.2 11.6 161 13.1
2006-02-15 13:16:45 51°17.724 2°52.024 162.6 12.2 154 13.2
2006-02-15 13:17:45 51°17.541 2°52.162 164 11.9 156 13.6
2006-02-15 13:18:45 51°17.36 2°52.308 161.3 12.2 152 13.3
2006-02-15 13:19:44 51°17.196 2°52.5 148.9 12.6 140 12.9
2006-02-15 13:20:45 51°17.037 2°52.737 148.5 12.4 138 13.1
2006-02-15 13:21:44 51°16.889 2°52.972 145.8 12.2 136 11.6
2006-02-15 13:22:44 51°16.737 2°53.215 146.4 12.7 138 14.4
2006-02-15 13:23:45 51°16.586 2°53.478 142.6 13.3 129 14.7
2006-02-15 13:24:45 51°16.434 2°53.734 148 13.5 134 14.4
2006-02-15 13:25:44 51°16.304 2°53.949 149.3 8.9 132 14.4
2006-02-15 13:26:44 51°16.248 2°54.129 107.5 7.6 90 14.4
2006-02-15 13:27:44 51°16.263 2°54.259 98.8 2.8 62 14.2
2006-02-15 13:28:44 51°16.285 2°54.326 105.9 2.9 66 14.3
2006-02-15 13:29:44 51°16.305 2°54.396 123.6 2.9 66 14.5
2006-02-15 13:30:45 51°16.322 2°54.464 139.3 2.6 69 14.3
2006-02-15 13:31:44 51°16.338 2°54.529 149.2 2.6 69 14.4
2006-02-15 13:32:44 51°16.354 2°54.594 156.1 2.7 67 14.3
2006-02-15 13:33:44 51°16.371 2°54.659 156.5 2.6 72 13.9
2006-02-15 13:34:45 51°16.376 2°54.729 171.4 2.6 103 13.5
2006-02-15 13:35:44 51°16.348 2°54.776 203.5 2.6 150 13.8
2006-02-15 13:36:45 51°16.319 2°54.769 230.2 1.9 210 14
2006-02-15 13:37:45 51°16.279 2°54.722 227.2 3.9 214 14.3
2006-02-15 13:38:45 51°16.147 2°54.673 196.8 10.6 187 14
2006-02-15 13:39:45 51°15.965 2°54.631 198.8 11.1 191 13.4
2006-02-15 13:40:45 51°15.781 2°54.582 199.5 11.1 189 13.2
2006-02-15 13:41:45 51°15.599 2°54.532 199.4 11 189 12.5
2006-02-15 13:42:44 51°15.42 2°54.479 200 11.1 191 12.3
2006-02-15 13:43:45 51°15.236 2°54.427 193.7 11.2 186 12
2006-02-15 13:44:45 51°15.052 2°54.402 191.5 11.2 178 11.5
2006-02-15 13:45:44 51°14.872 2°54.515 168.4 12.2 151 12.2
2006-02-15 13:46:45 51°14.693 2°54.68 163 12.1 151 12.5
2006-02-15 13:47:44 51°14.521 2°54.854 163.7 12.1 152 12.7
2006-02-15 13:48:45 51°14.364 2°55.077 139 12.2 131 13.2
2006-02-15 13:49:44 51°14.247 2°55.296 139.4 10.2 136 -999
2006-02-15 13:50:45 51°14.126 2°55.414 158.1 7.7 154 -999
2006-02-15 13:51:45 51°14.013 2°55.498 159.1 6.9 155 -999
2006-02-15 13:52:45 51°13.917 2°55.568 159.3 6 155 -999
2006-02-15 13:53:45 51°13.831 2°55.631 157.8 5.2 154 -999
2006-02-15 13:54:44 51°13.765 2°55.704 143.1 4.9 138 -999
2006-02-15 13:55:45 51°13.705 2°55.8 133.4 5.1 130 -999
2006-02-15 13:56:45 51°13.659 2°55.907 127 4.4 122 -999
2006-02-15 13:57:45 51°13.624 2°55.99 123.2 3.2 120 -999
2006-02-15 13:58:44 51°13.607 2°56.055 110.6 2.1 106 11.7
2006-02-15 13:59:46 51°13.599 2°56.088 123.2 0.4 136 9.3